createdAt,value
2019-03-18T00:01:43.163Z,7.80
2019-03-18T00:04:10.245Z,7.80
2019-03-18T00:06:37.077Z,7.70
2019-03-18T00:09:05.586Z,7.70
2019-03-18T00:11:32.756Z,7.70
2019-03-18T00:14:00.774Z,7.70
2019-03-18T00:16:27.634Z,7.80
2019-03-18T00:18:55.447Z,7.90
2019-03-18T00:21:22.401Z,7.80
2019-03-18T00:23:49.337Z,7.80
2019-03-18T00:26:16.348Z,7.80
2019-03-18T00:28:43.317Z,7.60
2019-03-18T00:31:10.044Z,7.50
2019-03-18T00:33:37.216Z,7.40
2019-03-18T00:36:04.057Z,7.40
2019-03-18T00:38:30.979Z,7.40
2019-03-18T00:40:58.041Z,7.60
2019-03-18T00:43:24.830Z,7.60
2019-03-18T00:45:52.058Z,7.60
2019-03-18T00:48:19.002Z,7.70
2019-03-18T00:50:48.277Z,7.70
2019-03-18T00:53:14.995Z,7.70
2019-03-18T00:55:41.738Z,7.80
2019-03-18T00:58:08.947Z,7.70
2019-03-18T01:00:35.780Z,7.70
2019-03-18T01:03:02.867Z,7.70
2019-03-18T01:05:30.921Z,7.80
2019-03-18T01:08:00.307Z,7.70
2019-03-18T01:10:27.041Z,7.70
2019-03-18T01:12:53.851Z,7.80
2019-03-18T01:15:27.857Z,7.60
2019-03-18T01:17:51.459Z,7.60
2019-03-18T01:20:18.411Z,7.60
2019-03-18T01:22:45.801Z,7.60
2019-03-18T01:25:13.083Z,7.50
2019-03-18T01:27:40.223Z,7.40
2019-03-18T01:30:12.327Z,7.30
2019-03-18T01:32:39.279Z,7.40
2019-03-18T01:35:08.325Z,7.40
2019-03-18T01:37:35.347Z,7.40
2019-03-18T01:40:04.876Z,7.30
2019-03-18T01:42:31.850Z,7.20
2019-03-18T01:44:58.669Z,7.20
2019-03-18T01:47:25.738Z,7.20
2019-03-18T01:49:52.679Z,7.30
2019-03-18T01:52:19.398Z,7.30
2019-03-18T01:54:46.115Z,7.30
2019-03-18T01:57:13.247Z,7.40
2019-03-18T01:59:40.241Z,7.20
2019-03-18T02:02:07.167Z,7.20
2019-03-18T02:04:35.099Z,7.20
2019-03-18T02:07:02.164Z,7.20
2019-03-18T02:09:29.926Z,7.10
2019-03-18T02:11:56.879Z,7.10
2019-03-18T02:14:25.473Z,7.20
2019-03-18T02:16:52.407Z,7.20
2019-03-18T02:19:19.405Z,7.10
2019-03-18T02:21:46.195Z,7.00
2019-03-18T02:24:13.151Z,7.10
2019-03-18T02:26:40.229Z,7.20
2019-03-18T02:29:06.926Z,7.00
2019-03-18T02:31:35.474Z,6.90
2019-03-18T02:34:02.663Z,6.90
2019-03-18T02:36:29.617Z,7.00
2019-03-18T02:38:56.887Z,7.00
2019-03-18T02:41:23.763Z,7.00
2019-03-18T02:43:50.754Z,7.00
2019-03-18T02:46:17.625Z,7.10
2019-03-18T02:48:44.413Z,7.00
2019-03-18T02:51:11.350Z,7.00
2019-03-18T02:53:38.601Z,6.90
2019-03-18T02:56:05.528Z,7.00
2019-03-18T02:58:32.227Z,7.10
2019-03-18T03:00:59.322Z,7.10
2019-03-18T03:03:26.222Z,7.20
2019-03-18T03:05:53.047Z,7.20
2019-03-18T03:08:20.332Z,7.20
2019-03-18T03:10:47.263Z,7.30
2019-03-18T03:13:13.996Z,7.30
2019-03-18T03:15:42.903Z,7.20
2019-03-18T03:18:09.842Z,7.30
2019-03-18T03:20:38.134Z,7.30
2019-03-18T03:23:05.635Z,7.30
2019-03-18T03:25:32.574Z,7.20
2019-03-18T03:27:59.531Z,7.30
2019-03-18T03:30:26.768Z,7.30
2019-03-18T03:32:55.285Z,7.20
2019-03-18T03:35:22.057Z,7.10
2019-03-18T03:37:49.388Z,7.10
2019-03-18T03:40:16.120Z,7.10
2019-03-18T03:42:43.189Z,7.00
2019-03-18T03:45:12.871Z,6.90
2019-03-18T03:47:40.028Z,6.90
2019-03-18T03:50:09.430Z,7.00
2019-03-18T03:52:36.391Z,7.00
2019-03-18T03:55:05.937Z,7.00
2019-03-18T03:57:32.843Z,7.10
2019-03-18T03:59:59.712Z,7.10
2019-03-18T04:02:27.124Z,7.10
2019-03-18T04:04:54.174Z,7.20
2019-03-18T04:07:21.120Z,7.20
2019-03-18T04:09:47.974Z,7.20
2019-03-18T04:12:14.785Z,7.20
2019-03-18T04:14:41.733Z,7.10
2019-03-18T04:17:08.583Z,7.00
2019-03-18T04:19:36.017Z,7.00
2019-03-18T04:22:03.564Z,7.10
2019-03-18T04:24:30.795Z,7.10
2019-03-18T04:26:58.104Z,7.10
2019-03-18T04:29:24.870Z,7.20
2019-03-18T04:31:51.881Z,7.30
2019-03-18T04:34:18.719Z,7.40
2019-03-18T04:36:45.698Z,7.30
2019-03-18T04:39:12.540Z,7.40
2019-03-18T04:41:39.342Z,7.40
2019-03-18T04:44:06.410Z,7.40
2019-03-18T04:46:34.147Z,7.40
2019-03-18T04:49:00.873Z,7.50
2019-03-18T04:51:27.784Z,7.50
2019-03-18T04:53:54.616Z,7.50
2019-03-18T04:56:21.592Z,7.50
2019-03-18T04:58:48.513Z,7.50
2019-03-18T05:01:15.542Z,7.50
2019-03-18T05:03:42.652Z,7.40
2019-03-18T05:06:10.521Z,7.50
2019-03-18T05:08:37.560Z,7.50
2019-03-18T05:11:04.547Z,7.60
2019-03-18T05:13:31.363Z,7.60
2019-03-18T05:15:58.410Z,7.60
2019-03-18T05:18:25.494Z,7.50
2019-03-18T05:20:53.255Z,7.50
2019-03-18T05:23:20.142Z,7.50
2019-03-18T05:25:46.892Z,7.50
2019-03-18T05:28:15.414Z,7.60
2019-03-18T05:30:42.207Z,7.60
2019-03-18T05:33:11.163Z,7.50
2019-03-18T05:35:38.151Z,7.40
2019-03-18T05:38:06.945Z,7.50
2019-03-18T05:40:35.470Z,7.50
2019-03-18T05:43:02.498Z,7.60
2019-03-18T05:45:29.533Z,7.50
2019-03-18T05:47:56.401Z,7.50
2019-03-18T05:50:23.348Z,7.60
2019-03-18T05:52:50.266Z,7.70
2019-03-18T05:55:18.036Z,7.70
2019-03-18T05:57:46.363Z,7.70
2019-03-18T06:00:13.544Z,7.40
2019-03-18T06:02:40.716Z,7.40
2019-03-18T06:05:08.748Z,7.60
2019-03-18T06:07:35.698Z,7.50
2019-03-18T06:10:06.260Z,7.60
2019-03-18T06:12:33.178Z,7.70
2019-03-18T06:15:00.450Z,7.70
2019-03-18T06:17:27.276Z,7.60
2019-03-18T06:19:55.062Z,7.60
2019-03-18T06:22:22.782Z,7.50
2019-03-18T06:24:49.715Z,7.50
2019-03-18T06:27:16.918Z,7.40
2019-03-18T06:29:43.748Z,7.20
2019-03-18T06:32:10.860Z,7.30
2019-03-18T06:34:37.987Z,7.40
2019-03-18T06:37:04.978Z,7.30
2019-03-18T06:39:31.905Z,7.40
2019-03-18T06:41:58.632Z,7.40
2019-03-18T06:44:26.038Z,7.50
2019-03-18T06:46:53.195Z,7.60
2019-03-18T06:49:21.759Z,7.60
2019-03-18T06:51:48.861Z,7.70
2019-03-18T06:54:15.813Z,7.70
2019-03-18T06:56:42.798Z,7.70
2019-03-18T06:59:09.944Z,7.70
2019-03-18T07:01:36.672Z,7.70
2019-03-18T07:04:05.320Z,7.70
2019-03-18T07:06:32.200Z,7.80
2019-03-18T07:09:00.658Z,7.80
2019-03-18T07:11:27.360Z,7.90
2019-03-18T07:13:55.806Z,8.00
2019-03-18T07:16:22.700Z,8.20
2019-03-18T07:18:49.951Z,8.20
2019-03-18T07:21:16.888Z,8.10
2019-03-18T07:23:44.070Z,8.10
2019-03-18T07:26:10.933Z,8.10
2019-03-18T07:28:37.680Z,8.10
2019-03-18T07:31:04.504Z,8.20
2019-03-18T07:33:33.039Z,8.20
2019-03-18T07:35:59.828Z,8.10
2019-03-18T07:38:26.916Z,8.10
2019-03-18T07:40:53.751Z,8.20
2019-03-18T07:43:20.478Z,8.20
2019-03-18T07:45:47.518Z,8.40
2019-03-18T07:48:14.684Z,8.60
2019-03-18T07:50:41.747Z,8.50
2019-03-18T07:53:09.370Z,8.70
2019-03-18T07:55:36.122Z,8.90
2019-03-18T07:58:03.261Z,9.00
2019-03-18T08:00:30.199Z,9.20
2019-03-18T08:02:57.127Z,9.30
2019-03-18T08:05:23.874Z,9.40
2019-03-18T08:07:50.583Z,9.40
2019-03-18T08:10:17.509Z,9.30
2019-03-18T08:12:44.395Z,9.40
2019-03-18T08:15:12.611Z,9.40
2019-03-18T08:17:39.529Z,9.40
2019-03-18T08:20:10.351Z,9.40
2019-03-18T08:22:38.519Z,9.50
2019-03-18T08:25:09.250Z,9.50
2019-03-18T08:27:36.829Z,9.70
2019-03-18T08:30:12.505Z,10.10
2019-03-18T08:32:39.620Z,10.40
2019-03-18T08:35:06.924Z,10.30
2019-03-18T08:37:35.358Z,10.40
2019-03-18T08:40:04.622Z,10.70
2019-03-18T08:42:31.497Z,11.30
2019-03-18T08:44:59.268Z,12.00
2019-03-18T08:47:26.295Z,12.80
2019-03-18T08:49:53.892Z,13.40
2019-03-18T08:52:20.648Z,14.30
2019-03-18T08:54:48.604Z,14.90
2019-03-18T08:57:15.612Z,15.40
2019-03-18T08:59:44.482Z,15.90
2019-03-18T09:02:11.465Z,16.10
2019-03-18T09:04:38.245Z,16.10
2019-03-18T09:07:06.881Z,15.90
2019-03-18T09:09:35.481Z,15.80
2019-03-18T09:12:02.409Z,15.70
2019-03-18T09:14:29.368Z,15.90
2019-03-18T09:16:56.145Z,15.60
2019-03-18T09:19:23.163Z,15.40
2019-03-18T09:21:50.094Z,14.80
2019-03-18T09:24:17.011Z,14.60
2019-03-18T09:26:45.710Z,14.30
2019-03-18T09:29:12.537Z,13.90
2019-03-18T09:31:39.363Z,13.70
2019-03-18T09:34:06.228Z,13.50
2019-03-18T09:36:32.915Z,13.40
2019-03-18T09:39:00.523Z,13.10
2019-03-18T09:41:27.366Z,13.00
2019-03-18T09:43:55.502Z,13.00
2019-03-18T09:46:22.906Z,13.00
2019-03-18T09:48:49.670Z,12.70
2019-03-18T09:51:16.563Z,12.70
2019-03-18T09:53:43.502Z,12.80
2019-03-18T09:56:10.675Z,12.70
2019-03-18T09:58:37.521Z,12.70
2019-03-18T10:01:05.603Z,12.50
2019-03-18T10:03:32.580Z,12.60
2019-03-18T10:05:59.735Z,12.60
2019-03-18T10:08:26.655Z,12.70
2019-03-18T10:10:53.409Z,12.80
2019-03-18T10:13:21.013Z,12.90
2019-03-18T10:15:47.840Z,12.70
2019-03-18T10:18:14.870Z,12.60
2019-03-18T10:20:41.845Z,12.80
2019-03-18T10:23:08.686Z,12.80
2019-03-18T10:25:35.807Z,12.80
2019-03-18T10:28:02.755Z,12.70
2019-03-18T10:30:29.785Z,12.90
2019-03-18T10:32:58.355Z,13.00
2019-03-18T10:35:25.286Z,12.90
2019-03-18T10:37:52.373Z,12.90
2019-03-18T10:40:19.701Z,12.90
2019-03-18T10:42:48.678Z,12.80
2019-03-18T10:45:15.674Z,12.70
2019-03-18T10:47:42.686Z,12.70
2019-03-18T10:50:12.729Z,12.80
2019-03-18T10:52:39.884Z,13.10
2019-03-18T10:55:08.415Z,13.50
2019-03-18T10:57:35.549Z,13.60
2019-03-18T11:00:16.881Z,13.50
2019-03-18T11:02:45.687Z,13.70
2019-03-18T11:05:13.479Z,14.00
2019-03-18T11:07:40.519Z,14.40
2019-03-18T11:10:12.591Z,14.20
2019-03-18T11:12:39.336Z,14.20
2019-03-18T11:15:11.422Z,14.00
2019-03-18T11:17:38.236Z,13.80
2019-03-18T11:20:08.933Z,13.60
2019-03-18T11:22:35.635Z,13.40
2019-03-18T11:25:05.385Z,13.10
2019-03-18T11:27:32.239Z,13.00
2019-03-18T11:29:59.629Z,12.90
2019-03-18T11:32:26.556Z,12.80
2019-03-18T11:34:55.091Z,12.70
2019-03-18T11:37:22.190Z,12.50
2019-03-18T11:39:49.262Z,12.00
2019-03-18T11:42:16.585Z,11.80
2019-03-18T11:44:45.379Z,11.80
2019-03-18T11:47:12.368Z,11.80
2019-03-18T11:49:40.051Z,12.30
2019-03-18T11:52:06.947Z,13.10
2019-03-18T11:54:35.657Z,14.80
2019-03-18T11:57:03.079Z,16.10
2019-03-18T11:59:30.206Z,16.90
2019-03-18T12:01:57.026Z,17.30
2019-03-18T12:04:25.817Z,17.20
2019-03-18T12:06:52.841Z,17.60
2019-03-18T12:09:19.682Z,18.20
2019-03-18T12:11:46.862Z,18.20
2019-03-18T12:14:13.778Z,19.20
2019-03-18T12:16:40.688Z,19.00
2019-03-18T12:19:07.774Z,19.50
2019-03-18T12:21:35.117Z,19.30
2019-03-18T12:24:03.805Z,18.60
2019-03-18T12:26:30.747Z,18.00
2019-03-18T12:28:57.807Z,17.20
2019-03-18T12:31:25.393Z,16.10
2019-03-18T12:33:52.143Z,15.80
2019-03-18T12:36:19.120Z,14.80
2019-03-18T12:38:46.059Z,14.30
2019-03-18T12:41:13.525Z,13.90
2019-03-18T12:43:40.208Z,13.60
2019-03-18T12:46:07.080Z,14.10
2019-03-18T12:48:35.676Z,14.50
2019-03-18T12:51:03.110Z,15.70
2019-03-18T12:53:30.274Z,17.30
2019-03-18T12:55:57.125Z,18.50
2019-03-18T12:58:23.965Z,19.40
2019-03-18T13:00:51.328Z,19.50
2019-03-18T13:03:18.206Z,18.70
2019-03-18T13:05:45.591Z,17.70
2019-03-18T13:08:12.340Z,16.80
2019-03-18T13:10:39.043Z,16.20
2019-03-18T13:13:06.014Z,15.70
2019-03-18T13:15:34.779Z,15.10
2019-03-18T13:18:01.881Z,14.70
2019-03-18T13:20:28.969Z,14.90
2019-03-18T13:22:56.164Z,15.40
2019-03-18T13:25:23.453Z,16.60
2019-03-18T13:27:50.587Z,18.00
2019-03-18T13:30:23.986Z,17.90
2019-03-18T13:32:51.516Z,17.60
2019-03-18T13:35:19.614Z,17.10
2019-03-18T13:37:46.452Z,16.70
2019-03-18T13:40:14.489Z,16.40
2019-03-18T13:42:43.323Z,16.00
2019-03-18T13:45:12.612Z,15.70
2019-03-18T13:47:39.969Z,15.40
2019-03-18T13:50:09.602Z,15.20
2019-03-18T13:52:36.447Z,14.90
2019-03-18T13:55:06.803Z,14.50
2019-03-18T13:57:33.806Z,14.20
2019-03-18T14:00:01.024Z,13.80
2019-03-18T14:02:27.718Z,13.60
2019-03-18T14:04:55.156Z,13.30
2019-03-18T14:07:22.512Z,13.00
2019-03-18T14:09:50.805Z,12.70
2019-03-18T14:12:17.990Z,12.40
2019-03-18T14:14:44.888Z,12.20
2019-03-18T14:17:12.278Z,12.00
2019-03-18T14:19:38.994Z,11.90
2019-03-18T14:22:05.792Z,12.00
2019-03-18T14:24:33.521Z,12.20
2019-03-18T14:27:00.304Z,12.20
2019-03-18T14:29:27.217Z,12.20
2019-03-18T14:31:55.444Z,12.30
2019-03-18T14:34:22.161Z,12.20
2019-03-18T14:36:49.915Z,12.20
2019-03-18T14:39:16.799Z,12.20
2019-03-18T14:41:43.440Z,12.10
2019-03-18T14:44:10.161Z,12.00
2019-03-18T14:46:36.924Z,11.90
2019-03-18T14:49:03.689Z,11.80
2019-03-18T14:51:31.487Z,11.90
2019-03-18T14:53:58.339Z,12.00
2019-03-18T14:56:26.115Z,12.20
2019-03-18T14:58:53.023Z,12.40
2019-03-18T15:01:19.769Z,12.50
2019-03-18T15:03:46.454Z,12.60
2019-03-18T15:06:13.206Z,12.60
2019-03-18T15:08:40.000Z,12.70
2019-03-18T15:11:06.617Z,12.70
2019-03-18T15:13:33.245Z,12.50
2019-03-18T15:15:59.908Z,12.60
2019-03-18T15:18:26.641Z,12.80
2019-03-18T15:20:55.329Z,13.00
2019-03-18T15:23:22.189Z,13.10
2019-03-18T15:25:48.999Z,13.30
2019-03-18T15:28:15.663Z,13.10
2019-03-18T15:30:42.483Z,12.90
2019-03-18T15:33:09.226Z,12.80
2019-03-18T15:35:36.049Z,12.70
2019-03-18T15:38:02.954Z,12.60
2019-03-18T15:40:29.581Z,12.70
2019-03-18T15:42:58.158Z,12.50
2019-03-18T15:45:25.341Z,12.30
2019-03-18T15:47:51.999Z,12.40
2019-03-18T15:50:25.665Z,12.40
2019-03-18T15:52:52.369Z,12.20
2019-03-18T15:55:19.228Z,12.20
2019-03-18T15:57:47.169Z,12.30
2019-03-18T16:00:24.221Z,12.10
2019-03-18T16:02:51.161Z,11.70
2019-03-18T16:05:20.364Z,11.80
2019-03-18T16:07:47.322Z,11.90
2019-03-18T16:10:15.711Z,12.00
2019-03-18T16:12:42.820Z,11.80
2019-03-18T16:15:12.559Z,11.70
2019-03-18T16:17:41.461Z,11.70
2019-03-18T16:20:22.210Z,11.80
2019-03-18T16:22:49.129Z,11.60
2019-03-18T16:25:16.011Z,11.50
2019-03-18T16:27:42.685Z,11.60
2019-03-18T16:30:12.455Z,11.70
2019-03-18T16:32:39.184Z,11.70
2019-03-18T16:35:08.016Z,11.70
2019-03-18T16:37:34.685Z,11.80
2019-03-18T16:40:01.712Z,11.80
2019-03-18T16:42:29.831Z,11.90
2019-03-18T16:44:56.585Z,12.00
2019-03-18T16:47:23.319Z,11.80
2019-03-18T16:49:53.653Z,11.80
2019-03-18T16:52:20.799Z,11.90
2019-03-18T16:54:47.562Z,11.80
2019-03-18T16:57:14.171Z,11.70
2019-03-18T16:59:40.817Z,11.70
2019-03-18T17:02:07.669Z,11.70
2019-03-18T17:04:34.399Z,11.70
2019-03-18T17:07:01.248Z,11.40
2019-03-18T17:09:29.846Z,11.40
2019-03-18T17:11:57.189Z,11.50
2019-03-18T17:14:23.845Z,11.50
2019-03-18T17:16:52.794Z,11.70
2019-03-18T17:19:19.561Z,11.60
2019-03-18T17:21:46.317Z,11.70
2019-03-18T17:24:13.156Z,11.70
2019-03-18T17:26:39.792Z,11.60
2019-03-18T17:29:06.429Z,11.60
2019-03-18T17:31:33.417Z,11.50
2019-03-18T17:34:02.037Z,11.50
2019-03-18T17:36:30.118Z,11.50
2019-03-18T17:38:57.223Z,11.60
2019-03-18T17:41:23.957Z,11.50
2019-03-18T17:43:51.209Z,11.40
2019-03-18T17:46:18.081Z,11.30
2019-03-18T17:48:44.722Z,11.30
2019-03-18T17:51:12.520Z,11.20
2019-03-18T17:53:39.140Z,11.20
2019-03-18T17:56:06.153Z,11.10
2019-03-18T17:58:32.949Z,11.10
2019-03-18T18:01:03.592Z,11.10
2019-03-18T18:03:30.230Z,11.00
2019-03-18T18:05:57.124Z,10.90
2019-03-18T18:08:23.783Z,11.10
2019-03-18T18:10:50.629Z,11.10
2019-03-18T18:13:17.404Z,11.20
2019-03-18T18:15:44.326Z,11.20
2019-03-18T18:18:11.216Z,11.10
2019-03-18T18:20:38.052Z,11.10
2019-03-18T18:23:13.752Z,11.10
2019-03-18T18:25:33.679Z,10.90
2019-03-18T18:28:01.491Z,10.80
2019-03-18T18:30:28.268Z,10.80
2019-03-18T18:32:55.088Z,10.80
2019-03-18T18:35:21.897Z,10.70
2019-03-18T18:37:48.724Z,10.60
2019-03-18T18:40:16.963Z,10.60
2019-03-18T18:42:44.305Z,10.60
2019-03-18T18:45:11.822Z,10.60
2019-03-18T18:47:38.749Z,10.70
2019-03-18T18:50:07.736Z,10.70
2019-03-18T18:52:34.765Z,10.70
2019-03-18T18:55:01.960Z,10.80
2019-03-18T18:57:28.965Z,10.80
2019-03-18T18:59:55.761Z,10.80
2019-03-18T19:02:22.523Z,10.70
2019-03-18T19:04:49.299Z,10.70
2019-03-18T19:07:19.257Z,10.60
2019-03-18T19:09:46.887Z,10.60
2019-03-18T19:12:13.923Z,10.60
2019-03-18T19:14:40.623Z,10.60
2019-03-18T19:17:07.370Z,10.70
2019-03-18T19:19:34.125Z,10.80
2019-03-18T19:22:01.189Z,10.80
2019-03-18T19:24:27.827Z,10.70
2019-03-18T19:26:54.482Z,10.50
2019-03-18T19:29:21.071Z,10.50
2019-03-18T19:31:48.113Z,10.50
2019-03-18T19:34:15.033Z,10.70
2019-03-18T19:36:41.601Z,10.60
2019-03-18T19:39:08.151Z,10.60
2019-03-18T19:41:34.929Z,10.60
2019-03-18T19:44:01.696Z,10.40
2019-03-18T19:46:28.777Z,10.20
2019-03-18T19:48:55.525Z,10.30
2019-03-18T19:51:22.396Z,10.30
2019-03-18T19:53:49.672Z,10.40
2019-03-18T19:56:16.575Z,10.50
2019-03-18T19:58:43.447Z,10.50
2019-03-18T20:01:12.225Z,10.40
2019-03-18T20:03:39.355Z,10.40
2019-03-18T20:06:06.298Z,10.30
2019-03-18T20:08:33.160Z,10.30
2019-03-18T20:10:59.999Z,10.30
2019-03-18T20:13:26.905Z,10.30
2019-03-18T20:15:53.650Z,10.20
2019-03-18T20:18:20.460Z,10.20
2019-03-18T20:20:47.195Z,10.20
2019-03-18T20:23:13.948Z,10.10
2019-03-18T20:25:40.842Z,10.20
2019-03-18T20:28:07.618Z,10.20
2019-03-18T20:30:34.285Z,10.20
2019-03-18T20:33:01.531Z,10.10
2019-03-18T20:35:28.185Z,10.20
2019-03-18T20:37:54.952Z,10.10
2019-03-18T20:40:21.928Z,10.00
2019-03-18T20:42:49.012Z,9.90
2019-03-18T20:45:18.420Z,9.90
2019-03-18T20:47:46.283Z,9.90
2019-03-18T20:50:15.917Z,9.90
2019-03-18T20:52:43.549Z,9.80
2019-03-18T20:55:11.541Z,9.70
2019-03-18T20:57:38.626Z,9.70
2019-03-18T21:00:16.603Z,9.60
2019-03-18T21:02:44.129Z,9.60
2019-03-18T21:05:11.250Z,9.60
2019-03-18T21:07:38.219Z,9.70
2019-03-18T21:10:14.064Z,9.70
2019-03-18T21:12:41.526Z,9.70
2019-03-18T21:15:13.697Z,9.70
2019-03-18T21:17:41.644Z,9.80
2019-03-18T21:20:26.958Z,9.80
2019-03-18T21:22:53.825Z,9.70
2019-03-18T21:25:20.630Z,9.70
2019-03-18T21:27:47.414Z,9.70
2019-03-18T21:30:16.760Z,9.70
2019-03-18T21:32:44.758Z,9.70
2019-03-18T21:35:11.607Z,9.60
2019-03-18T21:37:38.332Z,9.60
2019-03-18T21:40:08.929Z,9.60
2019-03-18T21:42:37.528Z,9.50
2019-03-18T21:45:07.784Z,9.60
2019-03-18T21:47:34.435Z,9.50
2019-03-18T21:50:04.003Z,9.50
2019-03-18T21:52:32.645Z,9.60
2019-03-18T21:54:59.329Z,9.60
2019-03-18T21:57:26.115Z,9.70
2019-03-18T21:59:53.425Z,9.60
2019-03-18T22:02:20.268Z,9.60
2019-03-18T22:04:46.918Z,9.50
2019-03-18T22:07:13.975Z,9.50
2019-03-18T22:09:40.724Z,9.50
2019-03-18T22:12:07.325Z,9.50
2019-03-18T22:14:34.203Z,9.40
2019-03-18T22:17:01.118Z,9.40
2019-03-18T22:19:27.989Z,9.50
2019-03-18T22:21:54.735Z,9.40
2019-03-18T22:24:21.448Z,9.50
2019-03-18T22:26:48.832Z,9.50
2019-03-18T22:29:15.837Z,9.60
2019-03-18T22:31:43.114Z,9.50
2019-03-18T22:34:10.015Z,9.40
2019-03-18T22:36:36.876Z,9.30
2019-03-18T22:39:06.219Z,9.20
2019-03-18T22:41:32.934Z,9.30
2019-03-18T22:43:59.742Z,9.50
2019-03-18T22:46:26.388Z,9.60
2019-03-18T22:48:53.088Z,9.60
2019-03-18T22:51:20.111Z,9.60
2019-03-18T22:53:46.731Z,9.60
2019-03-18T22:56:13.384Z,9.50
2019-03-18T22:58:40.106Z,9.50
2019-03-18T23:01:08.724Z,9.50
2019-03-18T23:03:35.488Z,9.50
2019-03-18T23:06:02.633Z,9.50
2019-03-18T23:08:29.270Z,9.60
2019-03-18T23:10:56.244Z,9.50
2019-03-18T23:13:23.067Z,9.40
2019-03-18T23:15:49.635Z,9.40
2019-03-18T23:18:16.287Z,9.50
2019-03-18T23:20:42.909Z,9.50
2019-03-18T23:23:09.677Z,9.40
2019-03-18T23:25:36.426Z,9.40
2019-03-18T23:28:03.259Z,9.30
2019-03-18T23:30:30.197Z,9.20
2019-03-18T23:32:57.072Z,9.20
2019-03-18T23:35:23.888Z,9.20
2019-03-18T23:37:50.622Z,9.20
2019-03-18T23:40:17.472Z,9.20
2019-03-18T23:42:44.116Z,9.00
2019-03-18T23:45:11.137Z,8.80
2019-03-18T23:47:37.659Z,8.90
2019-03-18T23:50:07.914Z,9.00
2019-03-18T23:52:34.482Z,8.90
2019-03-18T23:55:01.357Z,9.00
2019-03-18T23:57:27.968Z,9.10
2019-03-18T23:59:54.454Z,9.00
